Time;durP1;ratioP1;P1;durP2;ratioP2;P2;SDS_P1;SDS_P2;PMS_P1;PMS_P2;Temp;Humidity;BMP_temperature;BMP_pressure;BME280_temperature;BME280_humidity;BME280_pressure;Samples;Min_cycle;Max_cycle;Signal;HPM_P1;HPM_P2
2021/12/02 00:02:08;;;;;;;7.93;1.65;;;;;;;10.20;55.40;97168.00;4489656;31;20100;-80
2021/12/02 00:04:36;;;;;;;5.15;1.70;;;;;;;9.92;56.00;97164.06;4489555;31;20136;-80
2021/12/02 00:07:02;;;;;;;5.18;1.50;;;;;;;10.19;55.37;97179.47;4489991;31;20835;-80
2021/12/02 00:09:29;;;;;;;5.12;1.50;;;;;;;10.31;55.06;97178.53;4476381;31;20106;-80
2021/12/02 00:11:54;;;;;;;7.37;1.80;;;;;;;10.32;54.96;97180.22;4503805;31;20096;-81
2021/12/02 00:14:24;;;;;;;5.82;1.52;;;;;;;10.25;55.23;97184.25;4489546;31;20125;-80
2021/12/02 00:22:11;;;;;;;5.82;1.50;;;;;;;10.43;54.95;97164.41;4491563;31;20153;-80
2021/12/02 00:24:38;;;;;;;5.50;1.45;;;;;;;10.41;55.01;97155.81;4489464;31;20152;-81
2021/12/02 00:27:06;;;;;;;5.32;1.50;;;;;;;10.46;54.64;97147.53;4503156;31;20114;-81
2021/12/02 00:29:33;;;;;;;7.45;2.30;;;;;;;10.40;54.69;97145.38;4503676;31;20126;-81
2021/12/02 00:32:02;;;;;;;6.18;1.50;;;;;;;10.45;54.44;97142.37;4503676;31;20118;-80
2021/12/02 00:34:29;;;;;;;4.25;1.45;;;;;;;10.34;54.75;97145.88;4476119;31;20168;-81
2021/12/02 00:36:54;;;;;;;4.75;1.45;;;;;;;10.51;54.29;97140.09;4489259;31;20164;-81
2021/12/02 00:39:20;;;;;;;4.87;1.40;;;;;;;10.38;54.88;97131.50;4475757;31;20177;-82
2021/12/02 00:41:46;;;;;;;6.45;1.50;;;;;;;10.42;54.69;97131.12;4503602;31;20138;-81
2021/12/02 00:44:13;;;;;;;5.35;1.37;;;;;;;10.15;55.02;97128.88;4489262;31;20104;-80
2021/12/02 00:46:39;;;;;;;5.70;1.52;;;;;;;10.30;55.00;97134.75;4489160;31;20492;-81
2021/12/02 00:49:10;;;;;;;5.47;1.48;;;;;;;10.25;55.16;97136.88;4489176;31;20080;-80
2021/12/02 00:51:36;;;;;;;4.07;1.48;;;;;;;10.43;54.55;97137.25;4503334;31;20127;-80
2021/12/02 00:54:07;;;;;;;5.53;1.50;;;;;;;10.50;54.53;97127.87;4488936;31;20164;-81
2021/12/02 00:56:32;;;;;;;5.93;1.60;;;;;;;10.31;54.67;97125.06;4503652;31;20143;-81
2021/12/02 00:58:58;;;;;;;4.45;1.50;;;;;;;10.46;54.66;97128.25;4489026;31;20112;-81
2021/12/02 01:01:26;;;;;;;5.35;1.62;;;;;;;10.49;54.55;97131.50;4503445;31;20398;-81
2021/12/02 01:03:57;;;;;;;7.28;1.50;;;;;;;10.42;54.81;97136.41;4487354;31;20112;-82
2021/12/02 01:06:23;;;;;;;5.35;1.48;;;;;;;10.26;55.31;97135.94;4489082;31;20160;-82
2021/12/02 01:08:49;;;;;;;4.68;1.42;;;;;;;10.54;54.45;97139.00;4489213;31;20088;-81
2021/12/02 01:11:16;;;;;;;4.90;1.37;;;;;;;10.60;54.30;97125.34;4489009;31;20130;-82
2021/12/02 01:13:42;;;;;;;5.62;1.30;;;;;;;10.58;54.32;97137.78;4490755;31;20156;-80
2021/12/02 01:16:07;;;;;;;6.30;1.70;;;;;;;10.59;54.29;97137.66;4487372;31;20431;-80
2021/12/02 01:18:33;;;;;;;4.60;1.33;;;;;;;10.26;55.48;97143.81;4487305;31;20158;-80
2021/12/02 01:21:01;;;;;;;5.35;1.40;;;;;;;10.62;54.72;97141.84;4479239;31;20400;-81
2021/12/02 01:23:29;;;;;;;5.30;1.40;;;;;;;10.60;54.83;97138.50;4489009;31;20104;-80
2021/12/02 01:26:03;;;;;;;6.43;1.42;;;;;;;10.68;54.72;97141.38;4503006;31;20096;-79
2021/12/02 01:28:29;;;;;;;4.30;1.20;;;;;;;10.73;54.53;97136.53;4488945;31;20156;-80
2021/12/02 01:30:55;;;;;;;5.43;1.30;;;;;;;10.67;54.71;97131.78;4488912;31;20108;-80
2021/12/02 01:33:22;;;;;;;6.57;1.40;;;;;;;10.71;54.81;97129.75;4488922;31;20443;-79
2021/12/02 01:35:55;;;;;;;6.35;1.35;;;;;;;10.80;54.61;97132.47;4488952;31;20447;-79
2021/12/02 01:38:23;;;;;;;4.60;1.42;;;;;;;10.63;55.13;97123.28;4503083;31;20079;-80
2021/12/02 01:40:49;;;;;;;5.28;1.52;;;;;;;10.67;54.89;97131.78;4488835;31;20093;-79
2021/12/02 01:43:17;;;;;;;4.05;1.40;;;;;;;10.58;55.25;97128.09;4503298;31;20126;-79
2021/12/02 01:45:43;;;;;;;6.22;1.58;;;;;;;10.73;54.88;97112.00;4488725;31;20193;-79
2021/12/02 01:48:19;;;;;;;5.62;1.42;;;;;;;10.80;54.74;97114.03;4503102;31;20084;-80
2021/12/02 01:50:59;;;;;;;6.50;1.40;;;;;;;10.78;54.96;97113.31;4488747;31;20475;-79
2021/12/02 01:53:30;;;;;;;4.82;1.40;;;;;;;10.79;54.88;97111.50;4503268;31;20746;-79
2021/12/02 01:56:14;;;;;;;5.53;1.60;;;;;;;10.81;54.67;97114.84;4502823;31;20106;-79
2021/12/02 01:58:49;;;;;;;8.00;1.50;;;;;;;10.74;54.73;97114.53;4489073;31;20221;-80
2021/12/02 02:01:23;;;;;;;7.90;1.65;;;;;;;10.86;54.52;97117.12;4488789;31;20107;-80
2021/12/02 02:03:53;;;;;;;4.40;1.30;;;;;;;10.85;54.47;97116.25;4503392;31;20435;-80
2021/12/02 02:06:30;;;;;;;5.20;1.20;;;;;;;10.95;54.36;97111.06;4488657;31;20089;-80
2021/12/02 02:08:57;;;;;;;5.10;1.40;;;;;;;10.89;54.61;97111.59;4503089;31;20102;-80
2021/12/02 02:11:27;;;;;;;4.97;1.30;;;;;;;10.77;54.77;97118.69;4475723;31;20497;-81
2021/12/02 02:13:53;;;;;;;4.40;1.25;;;;;;;10.97;54.38;97120.53;4488608;31;20591;-80
2021/12/02 02:16:18;;;;;;;4.85;1.25;;;;;;;11.07;54.10;97119.75;4503152;31;20084;-81
2021/12/02 02:18:45;;;;;;;6.35;1.45;;;;;;;11.07;54.14;97130.28;4503125;31;20132;-81
2021/12/02 02:21:14;;;;;;;2.92;1.20;;;;;;;10.94;54.39;97122.59;4503269;31;20091;-80
2021/12/02 02:23:45;;;;;;;4.37;1.30;;;;;;;11.06;54.07;97129.47;4503257;31;20169;-80
2021/12/02 02:26:10;;;;;;;4.47;1.98;;;;;;;11.07;54.08;97125.88;4489347;31;20092;-80
2021/12/02 02:28:36;;;;;;;6.47;1.45;;;;;;;11.20;53.69;97125.66;4488606;31;20419;-81
2021/12/02 02:31:02;;;;;;;8.50;1.60;;;;;;;11.05;54.29;97124.31;4503171;31;20126;-81
2021/12/02 02:33:35;;;;;;;4.82;1.40;;;;;;;11.15;53.82;97114.69;4502439;31;20370;-79
2021/12/02 02:36:00;;;;;;;4.37;1.20;;;;;;;11.21;53.89;97111.53;4499913;31;20088;-81
2021/12/02 02:38:26;;;;;;;4.78;1.27;;;;;;;11.24;53.55;97110.44;4488684;31;20321;-81
2021/12/02 02:40:51;;;;;;;5.95;1.50;;;;;;;11.21;53.71;97111.53;4503110;31;20457;-81
2021/12/02 02:43:23;;;;;;;5.85;1.73;;;;;;;11.16;53.57;97114.56;4503150;31;20096;-81
2021/12/02 02:45:49;;;;;;;6.75;1.75;;;;;;;11.16;53.63;97114.56;4503130;31;20080;-81
2021/12/02 02:48:15;;;;;;;5.20;1.40;;;;;;;11.14;53.96;97116.47;4488764;31;20347;-81
2021/12/02 02:50:41;;;;;;;5.12;1.40;;;;;;;11.15;54.02;97119.97;4488721;31;20127;-81
2021/12/02 02:53:15;;;;;;;4.45;1.30;;;;;;;11.05;54.49;97121.69;4488078;31;20112;-81
2021/12/02 02:55:43;;;;;;;7.05;1.55;;;;;;;11.11;54.36;97134.38;4488437;31;20485;-81
2021/12/02 03:00:53;;;;;;;5.65;1.67;;;;;;;11.15;54.39;97126.06;4502754;31;20100;-81
2021/12/02 03:08:22;;;;;;;6.95;1.92;;;;;;;11.16;54.01;97135.66;4501374;31;20450;-81
2021/12/02 03:10:52;;;;;;;7.80;2.00;;;;;;;11.14;54.42;97132.28;4488704;31;20113;-81
2021/12/02 03:18:27;;;;;;;3.95;1.37;;;;;;;11.07;54.38;97114.47;4502594;31;20151;-81
2021/12/02 03:20:52;;;;;;;4.37;1.60;;;;;;;11.05;54.71;97114.63;4488134;31;20105;-80
2021/12/02 03:23:18;;;;;;;6.60;1.50;;;;;;;11.04;54.88;97110.31;4502600;31;20088;-80
2021/12/02 03:25:43;;;;;;;4.60;1.15;;;;;;;11.00;55.23;97115.00;4502369;31;20106;-80
2021/12/02 03:28:09;;;;;;;4.12;1.30;;;;;;;11.03;55.43;97121.81;4502484;31;20091;-81
2021/12/02 03:30:34;;;;;;;4.32;1.33;;;;;;;11.09;55.63;97129.22;4487931;31;20092;-81
2021/12/02 03:33:00;;;;;;;6.10;1.40;;;;;;;11.07;56.17;97132.91;4502142;31;20146;-81
2021/12/02 03:35:25;;;;;;;6.45;1.60;;;;;;;10.94;56.69;97133.94;4487999;31;20411;-81
2021/12/02 03:37:51;;;;;;;6.85;1.50;;;;;;;11.04;56.64;97136.66;4487812;31;20103;-81
2021/12/02 03:40:16;;;;;;;4.95;1.30;;;;;;;11.02;56.63;97128.88;4502153;31;20096;-80
2021/12/02 03:42:51;;;;;;;4.93;1.48;;;;;;;11.14;56.29;97128.81;4502088;31;20104;-80
2021/12/02 03:45:17;;;;;;;5.10;1.20;;;;;;;11.06;56.43;97116.28;4502166;31;20366;-80
2021/12/02 03:47:42;;;;;;;6.82;1.45;;;;;;;11.00;56.31;97119.44;4502086;31;20147;-80
2021/12/02 03:50:08;;;;;;;6.30;1.52;;;;;;;11.10;56.00;97120.31;4501967;31;20111;-80
2021/12/02 03:52:34;;;;;;;5.60;1.35;;;;;;;11.08;56.40;97116.16;4501808;31;20096;-80
2021/12/02 03:54:59;;;;;;;6.03;1.75;;;;;;;11.00;56.64;97107.09;4502001;31;20618;-80
2021/12/02 03:57:28;;;;;;;7.80;1.92;;;;;;;10.97;56.68;97104.72;4501911;31;20140;-80
2021/12/02 03:59:54;;;;;;;8.20;2.10;;;;;;;10.77;56.52;97105.53;4488060;31;20103;-80
2021/12/02 04:02:19;;;;;;;7.55;2.15;;;;;;;9.98;58.34;97127.56;4487476;31;20092;-81
2021/12/02 04:04:44;;;;;;;6.28;2.03;;;;;;;10.36;57.46;97123.72;4501871;31;20084;-81
2021/12/02 04:07:10;;;;;;;9.98;2.53;;;;;;;10.32;58.02;97126.75;4501720;31;20193;-80
2021/12/02 04:09:39;;;;;;;7.53;1.90;;;;;;;10.42;57.87;97123.22;4501702;31;20104;-80
2021/12/02 04:12:11;;;;;;;7.10;2.10;;;;;;;10.10;58.81;97123.16;4487646;31;20100;-80
2021/12/02 04:14:52;;;;;;;6.03;1.90;;;;;;;10.45;57.75;97123.94;4501739;31;20087;-80
2021/12/02 04:17:19;;;;;;;9.05;2.08;;;;;;;10.55;56.98;97124.91;4501972;31;20080;-81
2021/12/02 04:19:45;;;;;;;7.60;2.00;;;;;;;10.42;57.56;97120.59;4502952;31;20092;-81
2021/12/02 04:22:10;;;;;;;5.78;1.80;;;;;;;10.31;57.89;97130.31;4504192;31;20156;-81
2021/12/02 04:24:35;;;;;;;11.75;2.30;;;;;;;10.10;58.66;97127.56;4503999;31;20075;-81
2021/12/02 04:27:01;;;;;;;9.35;2.10;;;;;;;10.31;58.30;97123.25;4504002;31;20072;-81
2021/12/02 04:29:27;;;;;;;9.45;2.00;;;;;;;10.41;58.28;97133.88;4504032;31;20190;-81
2021/12/02 04:31:53;;;;;;;8.80;1.98;;;;;;;10.47;58.38;97138.69;4503934;31;20147;-81
2021/12/02 04:34:19;;;;;;;8.52;2.15;;;;;;;10.54;58.38;97128.47;4489625;31;20080;-81
2021/12/02 04:36:44;;;;;;;6.82;2.15;;;;;;;10.58;58.53;97125.44;4503929;31;20112;-81
2021/12/02 04:39:10;;;;;;;6.18;1.83;;;;;;;10.67;58.17;97118.63;4503985;31;20124;-81
2021/12/02 04:41:36;;;;;;;6.55;1.60;;;;;;;10.68;58.18;97128.19;4489222;31;20118;-81
2021/12/02 04:44:02;;;;;;;5.82;1.80;;;;;;;10.67;58.43;97126.53;4503748;31;20080;-81
2021/12/02 04:46:27;;;;;;;6.85;1.77;;;;;;;10.73;58.49;97133.91;4489350;31;20099;-81
2021/12/02 04:48:53;;;;;;;6.70;1.80;;;;;;;10.65;58.58;97131.06;4503819;31;20119;-81
2021/12/02 04:51:18;;;;;;;7.82;2.33;;;;;;;10.67;58.39;97129.16;4503827;31;20084;-81
2021/12/02 04:53:44;;;;;;;6.85;1.65;;;;;;;10.54;58.60;97123.22;4503569;31;20378;-81
2021/12/02 04:56:09;;;;;;;6.30;2.00;;;;;;;10.65;58.37;97122.34;4503845;31;20100;-81
2021/12/02 04:58:35;;;;;;;5.37;1.80;;;;;;;10.70;58.24;97117.53;4489456;31;20088;-81
2021/12/02 05:01:00;;;;;;;5.12;1.75;;;;;;;10.73;58.34;97104.13;4503841;31;20115;-81
2021/12/02 05:03:25;;;;;;;7.45;2.00;;;;;;;10.81;58.43;97101.69;4503789;31;20383;-81
2021/12/02 05:05:51;;;;;;;6.72;1.87;;;;;;;10.81;58.68;97089.34;4489381;31;20103;-81
2021/12/02 05:08:16;;;;;;;6.87;2.08;;;;;;;10.88;58.72;97089.69;4503764;31;20096;-81
2021/12/02 05:10:42;;;;;;;5.97;1.95;;;;;;;10.81;58.85;97110.41;4503799;31;20418;-81
2021/12/02 05:13:08;;;;;;;5.72;2.10;;;;;;;10.80;58.79;97114.03;4489214;31;20084;-81
2021/12/02 05:15:33;;;;;;;7.65;2.25;;;;;;;10.83;59.01;97139.25;4503460;31;20367;-81
2021/12/02 05:17:59;;;;;;;6.37;2.03;;;;;;;10.81;59.32;97134.13;4489156;31;20104;-81
2021/12/02 05:20:24;;;;;;;6.95;2.00;;;;;;;10.78;59.71;97133.56;4503490;31;20092;-80
2021/12/02 05:22:50;;;;;;;6.65;2.10;;;;;;;10.74;59.84;97138.22;4489069;31;20115;-81
2021/12/02 05:25:16;;;;;;;6.43;1.75;;;;;;;10.79;59.83;97133.41;4503369;31;20105;-80
2021/12/02 05:27:41;;;;;;;6.28;1.62;;;;;;;10.80;59.81;97129.00;4489076;31;20096;-81
2021/12/02 05:30:07;;;;;;;5.82;1.80;;;;;;;10.94;59.30;97128.69;4488827;31;20146;-81
2021/12/02 05:32:33;;;;;;;4.90;1.48;;;;;;;10.92;59.38;97127.16;4502755;31;20147;-81
2021/12/02 05:34:59;;;;;;;8.43;2.37;;;;;;;10.93;59.26;97127.03;4503405;31;20076;-81
2021/12/02 05:37:24;;;;;;;6.95;2.00;;;;;;;10.86;59.60;97122.38;4488917;31;20092;-80
2021/12/02 05:39:50;;;;;;;7.65;2.50;;;;;;;10.77;59.84;97124.78;4488965;31;20150;-81
2021/12/02 05:42:15;;;;;;;6.60;1.90;;;;;;;10.79;59.86;97119.41;4488838;31;20083;-82
2021/12/02 05:44:42;;;;;;;6.93;2.00;;;;;;;10.84;59.73;97109.34;4488875;31;20080;-81
2021/12/02 05:47:07;;;;;;;8.23;2.40;;;;;;;10.90;59.69;97118.53;4488981;31;20458;-81
2021/12/02 05:49:33;;;;;;;8.85;2.17;;;;;;;10.80;59.54;97123.72;4503242;31;20123;-81
2021/12/02 05:51:58;;;;;;;8.13;2.70;;;;;;;10.57;60.11;97122.97;4503146;31;20072;-81
2021/12/02 05:54:24;;;;;;;8.25;2.17;;;;;;;10.75;59.82;97121.44;4502991;31;20358;-81
2021/12/02 05:56:49;;;;;;;6.47;1.95;;;;;;;10.73;59.91;97120.75;4488819;31;20143;-81
2021/12/02 05:59:14;;;;;;;6.68;1.83;;;;;;;10.73;59.85;97118.09;4503154;31;20088;-81
2021/12/02 06:01:42;;;;;;;6.57;1.80;;;;;;;10.72;59.85;97116.44;4503099;31;20161;-81
2021/12/02 06:04:09;;;;;;;8.10;2.28;;;;;;;10.68;60.10;97109.78;4503210;31;20465;-80
2021/12/02 06:06:35;;;;;;;7.50;2.20;;;;;;;10.69;60.23;97113.22;4503068;31;20518;-80
2021/12/02 06:09:00;;;;;;;7.93;2.10;;;;;;;10.73;60.34;97117.28;4503091;31;20092;-80
2021/12/02 06:11:26;;;;;;;6.32;1.80;;;;;;;10.70;60.45;97110.47;4488734;31;20120;-81
2021/12/02 06:13:51;;;;;;;6.40;1.70;;;;;;;10.69;60.44;97115.88;4502955;31;20076;-80
2021/12/02 06:16:17;;;;;;;6.50;1.62;;;;;;;10.76;60.42;97115.25;4503052;31;20130;-81
2021/12/02 06:18:43;;;;;;;5.28;1.62;;;;;;;10.79;60.32;97122.03;4488740;31;20442;-81
2021/12/02 06:21:08;;;;;;;6.82;1.55;;;;;;;10.78;60.37;97123.84;4503049;31;20378;-81
2021/12/02 06:23:35;;;;;;;6.85;1.90;;;;;;;10.81;60.21;97122.75;4503045;31;20080;-81
2021/12/02 06:26:01;;;;;;;6.73;1.83;;;;;;;10.93;59.92;97118.25;4488681;31;20534;-81
2021/12/02 06:28:27;;;;;;;5.82;1.60;;;;;;;10.96;59.72;97113.59;4503030;31;20128;-81
2021/12/02 06:30:52;;;;;;;5.82;1.75;;;;;;;11.01;59.63;97113.22;4502969;31;20127;-81
2021/12/02 06:33:18;;;;;;;9.57;2.20;;;;;;;11.02;59.65;97115.69;4488502;31;20092;-81
2021/12/02 06:35:43;;;;;;;6.15;2.05;;;;;;;10.93;59.93;97113.00;4502962;31;20115;-80
2021/12/02 06:38:10;;;;;;;6.68;2.10;;;;;;;11.02;59.76;97120.97;4502925;31;20106;-80
2021/12/02 06:40:37;;;;;;;7.32;2.10;;;;;;;11.08;59.73;97127.53;4502910;31;20112;-81
2021/12/02 06:43:03;;;;;;;6.20;1.90;;;;;;;11.08;59.73;97122.25;4488285;31;20102;-88
2021/12/02 06:45:29;;;;;;;7.35;1.90;;;;;;;10.89;60.06;97130.84;4501102;31;20120;-82
2021/12/02 06:47:58;;;;;;;5.37;1.95;;;;;;;11.17;60.22;97125.94;4503047;31;20469;-84
2021/12/02 06:50:24;;;;;;;8.90;2.08;;;;;;;11.21;60.05;97133.44;4501902;31;20126;-83
2021/12/02 06:52:51;;;;;;;7.57;2.42;;;;;;;11.16;59.77;97138.28;4486863;32;20080;-83
2021/12/02 06:55:17;;;;;;;6.97;1.70;;;;;;;11.15;59.56;97135.78;4472969;32;20114;-84
2021/12/02 06:57:42;;;;;;;7.05;1.70;;;;;;;11.23;59.43;97133.34;4479326;32;20093;-82
2021/12/02 07:00:11;;;;;;;8.73;1.98;;;;;;;11.25;59.41;97139.31;4486821;32;20110;-84
2021/12/02 07:02:37;;;;;;;5.75;1.70;;;;;;;11.31;59.32;97133.50;4470242;32;20114;-89
2021/12/02 07:05:07;;;;;;;4.65;1.90;;;;;;;11.21;59.36;97133.44;4486285;32;20383;-80
2021/12/02 07:07:36;;;;;;;7.68;2.72;;;;;;;11.32;58.83;97136.97;4472086;32;20250;-81
2021/12/02 07:10:07;;;;;;;8.30;2.95;;;;;;;11.40;58.53;97138.03;4485240;32;20115;-83
2021/12/02 07:12:33;;;;;;;10.27;3.08;;;;;;;11.41;58.54;97144.13;4484362;32;20173;-82
2021/12/02 07:15:06;;;;;;;10.73;2.97;;;;;;;11.37;58.79;97153.25;4485777;32;20148;-82
2021/12/02 07:17:32;;;;;;;10.93;3.47;;;;;;;11.21;59.30;97165.09;4472443;32;20088;-82
2021/12/02 07:19:59;;;;;;;9.48;2.70;;;;;;;11.23;59.67;97167.59;4485896;32;20201;-81
2021/12/02 07:22:24;;;;;;;9.55;2.80;;;;;;;11.35;59.36;97161.28;4485784;32;20137;-81
2021/12/02 07:24:50;;;;;;;7.57;2.40;;;;;;;11.29;59.70;97155.72;4471588;32;20147;-81
2021/12/02 07:27:16;;;;;;;7.18;2.40;;;;;;;11.31;59.91;97151.16;4486252;32;20116;-81
2021/12/02 07:29:41;;;;;;;8.88;2.58;;;;;;;11.18;60.04;97151.31;4486545;32;20076;-81
2021/12/02 07:32:10;;;;;;;9.20;2.75;;;;;;;11.24;59.85;97153.44;4486434;32;20118;-81
2021/12/02 07:34:37;;;;;;;9.00;2.50;;;;;;;11.23;59.71;97146.50;4486264;32;20088;-81
2021/12/02 07:37:03;;;;;;;9.93;3.30;;;;;;;11.33;59.58;97151.84;4471103;32;20440;-81
2021/12/02 07:39:29;;;;;;;11.57;3.35;;;;;;;11.34;59.79;97154.34;4486373;32;20111;-81
2021/12/02 07:41:55;;;;;;;8.38;3.30;;;;;;;11.36;59.64;97162.97;4472172;32;20372;-81
2021/12/02 07:44:21;;;;;;;10.30;2.95;;;;;;;11.24;59.95;97163.97;4486180;32;20145;-81
2021/12/02 07:46:46;;;;;;;9.07;3.00;;;;;;;11.27;60.18;97162.91;4472076;32;20475;-81
2021/12/02 07:49:13;;;;;;;9.98;3.20;;;;;;;11.15;60.80;97164.78;4473466;32;20153;-80
2021/12/02 07:51:39;;;;;;;9.85;3.08;;;;;;;11.28;60.94;97164.56;4478050;32;20451;-80
2021/12/02 07:54:04;;;;;;;7.53;2.47;;;;;;;11.26;60.92;97182.31;4471276;32;20156;-80
2021/12/02 07:56:32;;;;;;;9.65;2.67;;;;;;;11.17;61.25;97176.84;4474471;31;20462;-80
2021/12/02 07:58:58;;;;;;;10.02;2.80;;;;;;;11.01;61.88;97179.91;4485101;32;20112;-80
2021/12/02 08:01:24;;;;;;;9.55;2.92;;;;;;;11.08;61.63;97190.78;4464653;32;20084;-80
2021/12/02 08:03:51;;;;;;;9.20;2.60;;;;;;;11.11;61.76;97185.25;4487623;31;20111;-79
2021/12/02 08:06:17;;;;;;;9.25;2.62;;;;;;;11.19;61.76;97174.91;4480429;32;20168;-80
2021/12/02 08:08:45;;;;;;;7.28;2.40;;;;;;;11.09;62.13;97181.94;4486336;31;20104;-80
2021/12/02 08:11:11;;;;;;;9.55;2.30;;;;;;;11.20;61.94;97173.13;4479115;31;20140;-80
2021/12/02 08:13:37;;;;;;;7.22;2.30;;;;;;;11.10;62.31;97186.22;4494901;31;20678;-80
2021/12/02 08:16:05;;;;;;;7.85;2.40;;;;;;;11.24;62.14;97176.34;4468718;32;20092;-79
2021/12/02 08:18:30;;;;;;;;;;;;;;;11.25;62.31;97180.66;4474324;32;20458;-76
2021/12/02 08:20:56;;;;;;;6.37;1.92;;;;;;;11.25;62.60;97175.38;4473778;32;19972;-76
2021/12/02 08:23:22;;;;;;;8.85;1.90;;;;;;;11.24;62.81;97179.78;4473711;32;20101;-77
2021/12/02 08:25:48;;;;;;;7.65;2.12;;;;;;;11.33;62.87;97176.41;4473569;32;20359;-77
2021/12/02 08:28:13;;;;;;;9.25;2.25;;;;;;;11.22;63.28;97192.28;4487882;32;20085;-77
2021/12/02 08:30:39;;;;;;;7.12;2.20;;;;;;;11.23;63.48;97187.84;4488025;32;20072;-77
2021/12/02 08:33:06;;;;;;;5.72;1.60;;;;;;;11.34;63.69;97193.09;4487982;32;20123;-77
2021/12/02 08:35:34;;;;;;;6.07;1.90;;;;;;;11.28;64.10;97199.69;4474046;32;20121;-77
2021/12/02 08:38:07;;;;;;;5.37;1.50;;;;;;;11.36;63.97;97206.97;4488218;32;20443;-77
2021/12/02 08:40:34;;;;;;;6.40;1.80;;;;;;;11.44;63.96;97201.06;4474489;32;20072;-77
2021/12/02 08:43:01;;;;;;;5.75;1.70;;;;;;;11.43;64.13;97200.19;4473889;32;20119;-77
2021/12/02 08:45:27;;;;;;;5.65;1.62;;;;;;;11.38;64.12;97210.31;4487883;32;20119;-77
2021/12/02 08:47:54;;;;;;;7.40;1.70;;;;;;;11.41;64.10;97212.69;4473656;32;20154;-78
2021/12/02 08:50:20;;;;;;;7.25;1.83;;;;;;;11.43;64.10;97215.19;4473639;32;20088;-78
2021/12/02 08:52:48;;;;;;;6.62;1.77;;;;;;;11.42;64.32;97214.38;4487441;32;20119;-77
2021/12/02 08:55:14;;;;;;;;;;;;;;;11.47;64.13;97209.53;4488193;32;20499;-78
2021/12/02 08:57:39;;;;;;;6.20;1.90;;;;;;;11.48;64.05;97210.38;4487823;32;19972;-78
2021/12/02 09:00:07;;;;;;;7.50;2.53;;;;;;;11.51;63.91;97210.09;4487763;32;20103;-77
2021/12/02 09:02:32;;;;;;;;;;;;;;;11.57;63.72;97213.09;4488052;32;20165;-78
2021/12/02 09:04:58;;;;;;;10.05;3.42;;;;;;;11.61;63.42;97214.50;4487460;32;20239;-77
2021/12/02 09:07:24;;;;;;;11.63;3.67;;;;;;;11.59;63.44;97212.97;4472716;32;20110;-77
2021/12/02 09:09:49;;;;;;;10.75;4.00;;;;;;;11.50;63.28;97206.63;4473393;32;20119;-78
2021/12/02 09:12:15;;;;;;;8.60;3.33;;;;;;;11.52;62.88;97203.87;4473378;32;20360;-78
2021/12/02 09:14:40;;;;;;;8.50;2.80;;;;;;;11.40;63.41;97195.19;4487729;32;20132;-78
2021/12/02 09:17:06;;;;;;;7.85;2.60;;;;;;;11.53;63.15;97201.13;4473331;32;20120;-78
2021/12/02 09:19:31;;;;;;;8.32;2.97;;;;;;;11.52;63.43;97194.16;4487646;32;20116;-78
2021/12/02 09:21:57;;;;;;;9.85;3.00;;;;;;;11.53;63.59;97190.56;4487541;32;20141;-78
2021/12/02 09:24:22;;;;;;;11.82;2.85;;;;;;;11.59;63.60;97187.41;4487538;32;20076;-78
2021/12/02 09:26:49;;;;;;;10.20;3.20;;;;;;;11.66;63.33;97186.88;4487638;32;20119;-77
2021/12/02 09:29:17;;;;;;;9.47;3.27;;;;;;;11.72;63.25;97189.81;4473252;32;20151;-78
2021/12/02 09:31:43;;;;;;;12.15;3.50;;;;;;;11.75;63.22;97186.13;4487579;32;20161;-78
2021/12/02 09:34:09;;;;;;;8.18;3.15;;;;;;;11.77;63.26;97177.09;4487512;32;20097;-78
2021/12/02 09:36:36;;;;;;;10.85;3.40;;;;;;;11.58;63.86;97175.19;4487541;32;20084;-78
2021/12/02 09:39:04;;;;;;;10.90;3.27;;;;;;;11.76;63.46;97166.66;4473208;32;20500;-78
2021/12/02 09:41:29;;;;;;;11.70;3.42;;;;;;;11.82;63.41;97174.09;4473135;32;20174;-77
2021/12/02 09:43:54;;;;;;;11.80;3.87;;;;;;;11.82;63.41;97168.81;4487446;32;20081;-78
2021/12/02 09:46:20;;;;;;;11.60;4.00;;;;;;;11.91;63.07;97173.31;4487463;32;20120;-78
2021/12/02 09:48:46;;;;;;;9.85;3.55;;;;;;;11.93;63.12;97170.53;4473191;32;20081;-78
2021/12/02 09:51:16;;;;;;;8.23;2.90;;;;;;;11.87;63.31;97168.41;4487600;32;20096;-78
2021/12/02 09:56:25;;;;;;;7.40;2.77;;;;;;;11.90;63.42;97165.50;4487422;32;20155;-78
2021/12/02 09:58:54;;;;;;;9.48;2.70;;;;;;;11.95;63.31;97158.03;4487390;32;20541;-78
2021/12/02 10:01:23;;;;;;;8.60;2.37;;;;;;;11.82;63.73;97152.97;4487586;32;20115;-78
2021/12/02 10:03:54;;;;;;;9.48;2.65;;;;;;;11.83;63.76;97152.00;4487383;32;20388;-78
2021/12/02 10:06:28;;;;;;;8.63;2.60;;;;;;;11.87;63.62;97152.56;4473878;32;20098;-78
2021/12/02 10:09:08;;;;;;;6.65;2.40;;;;;;;11.71;64.03;97153.88;4473328;32;20080;-77
2021/12/02 10:11:47;;;;;;;7.37;2.50;;;;;;;11.79;63.94;97143.50;4487349;32;20132;-78
2021/12/02 10:14:16;;;;;;;8.70;2.55;;;;;;;11.87;63.63;97153.41;4487235;32;20076;-78
2021/12/02 10:16:45;;;;;;;9.27;3.05;;;;;;;11.70;63.98;97146.09;4486715;32;20092;-78
2021/12/02 10:19:12;;;;;;;7.45;2.45;;;;;;;11.57;64.40;97133.97;4473375;32;20076;-78
2021/12/02 10:21:54;;;;;;;8.60;2.80;;;;;;;11.70;64.13;97135.53;4473186;32;20119;-78
2021/12/02 10:24:23;;;;;;;8.35;2.50;;;;;;;11.55;64.61;97127.13;4474524;32;20192;-78
2021/12/02 10:26:53;;;;;;;7.78;2.80;;;;;;;11.64;63.99;97136.91;4487248;32;20164;-78
2021/12/02 10:29:24;;;;;;;7.75;2.90;;;;;;;11.48;64.46;97136.53;4487132;32;20096;-78
2021/12/02 10:32:09;;;;;;;10.52;2.85;;;;;;;11.44;64.79;97140.41;4487204;32;20080;-78
2021/12/02 10:35:00;;;;;;;9.05;2.85;;;;;;;11.08;65.64;97134.59;4487192;32;20089;-78
2021/12/02 10:37:32;;;;;;;10.43;3.95;;;;;;;10.95;65.95;97122.47;4473088;32;20111;-78
2021/12/02 10:40:10;;;;;;;9.90;3.00;;;;;;;10.82;66.78;97132.34;4487007;32;20076;-78
2021/12/02 10:42:41;;;;;;;9.13;2.95;;;;;;;10.66;67.00;97121.38;4472720;32;20108;-78
2021/12/02 10:45:07;;;;;;;10.23;2.92;;;;;;;10.66;66.80;97122.19;4487197;32;20087;-78
2021/12/02 10:47:34;;;;;;;8.77;2.90;;;;;;;10.75;66.58;97123.25;4487001;32;20088;-78
2021/12/02 10:50:06;;;;;;;9.27;2.93;;;;;;;10.58;66.96;97114.91;4438221;32;1104912;-77
2021/12/02 10:52:33;;;;;;;9.68;2.83;;;;;;;10.75;66.39;97118.00;4472555;32;20161;-78
2021/12/02 10:55:03;;;;;;;9.25;2.70;;;;;;;10.76;66.25;97119.69;4487055;32;20111;-78
2021/12/02 10:57:31;;;;;;;10.02;2.95;;;;;;;10.86;65.74;97115.31;4486883;32;20084;-78
2021/12/02 10:59:57;;;;;;;10.00;2.60;;;;;;;10.78;65.82;97105.41;4486901;32;20135;-78
2021/12/02 11:02:35;;;;;;;6.28;2.28;;;;;;;10.89;65.37;97106.31;4486987;32;20122;-78
2021/12/02 11:05:10;;;;;;;7.87;2.22;;;;;;;11.07;64.87;97104.78;4472630;32;20152;-78
2021/12/02 11:07:41;;;;;;;8.60;2.50;;;;;;;11.05;64.76;97101.44;4486839;32;20118;-78
2021/12/02 11:10:09;;;;;;;7.22;1.80;;;;;;;11.10;64.11;97099.25;4472724;32;20076;-77
2021/12/02 11:12:37;;;;;;;6.47;1.73;;;;;;;10.72;64.58;97095.38;4472482;32;20100;-78
2021/12/02 11:15:14;;;;;;;5.35;1.60;;;;;;;10.62;65.04;97094.44;4472539;32;20096;-78
2021/12/02 11:17:51;;;;;;;4.35;1.65;;;;;;;10.76;64.39;97088.91;4486728;32;20088;-77
2021/12/02 11:20:17;;;;;;;5.30;1.20;;;;;;;10.75;64.45;97087.22;4472542;32;20102;-78
2021/12/02 11:22:42;;;;;;;5.78;1.60;;;;;;;10.84;64.14;97083.00;4486477;32;20088;-78
2021/12/02 11:25:09;;;;;;;4.78;1.50;;;;;;;10.91;64.21;97085.94;4472215;32;20097;-78
2021/12/02 11:27:42;;;;;;;4.65;1.23;;;;;;;10.86;64.12;97086.34;4486631;32;20084;-78
2021/12/02 11:30:28;;;;;;;3.83;1.40;;;;;;;10.85;64.04;97079.38;4485579;32;20129;-78
2021/12/02 11:32:58;;;;;;;3.08;1.05;;;;;;;10.79;64.46;97075.44;4486430;32;20096;-78
2021/12/02 11:35:40;;;;;;;4.68;1.10;;;;;;;10.88;63.81;97080.94;4486513;32;20096;-78
2021/12/02 11:38:06;;;;;;;2.22;0.90;;;;;;;10.67;64.24;97079.13;4486633;32;20140;-78
2021/12/02 11:40:38;;;;;;;2.78;0.80;;;;;;;10.66;64.07;97073.97;4471999;32;20095;-78
2021/12/02 11:43:04;;;;;;;4.25;1.02;;;;;;;10.51;64.51;97074.28;4486407;32;20080;-78
2021/12/02 11:45:32;;;;;;;3.95;1.40;;;;;;;10.27;65.22;97081.50;4486323;32;20110;-78
2021/12/02 11:47:58;;;;;;;5.82;1.52;;;;;;;10.10;65.83;97082.84;4486278;32;20076;-78
2021/12/02 11:50:26;;;;;;;3.60;1.25;;;;;;;10.30;65.36;97076.84;4486178;32;20106;-77
2021/12/02 11:52:51;;;;;;;;;;;;;;;10.19;65.22;97077.69;4471986;32;20130;-78
2021/12/02 11:55:20;;;;;;;4.47;1.20;;;;;;;10.31;64.84;97067.16;4486353;32;19983;-78
2021/12/02 11:57:46;;;;;;;3.72;1.20;;;;;;;10.06;65.69;97076.16;4471881;32;20092;-78